Time;durP1;ratioP1;P1;durP2;ratioP2;P2;SDS_P1;SDS_P2;PMS_P1;PMS_P2;Temp;Humidity;BMP_temperature;BMP_pressure;BME280_temperature;BME280_humidity;BME280_pressure;Samples;Min_cycle;Max_cycle;Signal;HPM_P1;HPM_P2
2023/03/17 00:00:09;;;;;;;11.43;7.20;;;5.50;95.80;;;;;;4985285;28;20394;-47
2023/03/17 00:02:58;;;;;;;10.10;6.00;;;5.50;95.70;;;;;;5014947;28;20057;-52
2023/03/17 00:05:44;;;;;;;9.55;5.93;;;5.50;95.70;;;;;;5018800;28;20494;-51
2023/03/17 00:08:32;;;;;;;8.50;6.20;;;5.50;95.80;;;;;;5015202;28;20114;-52
2023/03/17 00:11:19;;;;;;;9.43;6.40;;;5.50;95.60;;;;;;5019129;28;20033;-51
2023/03/17 00:14:05;;;;;;;10.40;6.70;;;5.50;95.70;;;;;;5018219;28;20053;-49
2023/03/17 00:16:52;;;;;;;10.70;6.05;;;5.50;95.70;;;;;;5012725;28;20498;-54
2023/03/17 00:19:38;;;;;;;7.72;5.75;;;5.40;95.60;;;;;;5010372;28;20109;-51
2023/03/17 00:22:24;;;;;;;7.78;6.43;;;5.40;95.70;;;;;;5011638;28;20034;-53
2023/03/17 00:25:41;;;;;;;10.27;6.88;;;5.40;95.80;;;;;;5010014;28;20099;-48
2023/03/17 00:28:27;;;;;;;8.48;6.22;;;5.40;95.60;;;;;;5009726;28;20088;-48
2023/03/17 00:31:16;;;;;;;9.98;6.78;;;5.40;95.80;;;;;;5009635;28;20030;-48
2023/03/17 00:34:02;;;;;;;11.23;6.32;;;5.40;95.90;;;;;;5007834;28;20076;-46
2023/03/17 00:36:49;;;;;;;9.15;6.00;;;5.40;95.90;;;;;;5007530;28;20124;-47
2023/03/17 00:39:35;;;;;;;9.77;6.43;;;5.30;96.00;;;;;;5013183;28;20367;-47
2023/03/17 00:42:22;;;;;;;10.07;6.65;;;5.30;96.00;;;;;;5000497;28;20026;-49
2023/03/17 00:45:09;;;;;;;11.00;6.85;;;5.30;96.10;;;;;;5014509;28;20034;-47
2023/03/17 00:47:55;;;;;;;8.52;6.28;;;5.40;96.00;;;;;;5014232;28;20101;-46
2023/03/17 00:50:41;;;;;;;9.48;5.95;;;5.40;96.00;;;;;;5014651;28;20558;-47
2023/03/17 00:53:27;;;;;;;9.30;6.18;;;5.50;95.90;;;;;;5015062;28;20115;-46
2023/03/17 00:56:19;;;;;;;9.75;5.78;;;5.40;95.90;;;;;;5011148;28;20568;-47
2023/03/17 00:59:15;;;;;;;9.98;6.50;;;5.50;96.00;;;;;;5007085;28;20034;-48
2023/03/17 01:02:01;;;;;;;9.55;6.05;;;5.40;96.00;;;;;;5009748;28;20498;-46
2023/03/17 01:04:47;;;;;;;11.65;6.45;;;5.40;96.00;;;;;;5014277;28;20034;-46
2023/03/17 01:07:33;;;;;;;8.73;5.97;;;5.40;96.00;;;;;;5012150;28;20026;-49
2023/03/17 01:10:25;;;;;;;9.40;6.50;;;5.40;96.00;;;;;;5014996;28;20038;-46
2023/03/17 01:13:12;;;;;;;10.90;6.95;;;5.40;96.00;;;;;;5015812;28;20080;-52
2023/03/17 01:15:58;;;;;;;8.90;6.22;;;5.50;96.00;;;;;;5015878;28;20529;-47
2023/03/17 01:18:44;;;;;;;10.52;6.45;;;5.40;95.90;;;;;;5014541;28;20076;-47
2023/03/17 01:21:30;;;;;;;9.10;6.43;;;5.40;96.00;;;;;;5014984;28;20441;-47
2023/03/17 01:24:16;;;;;;;10.43;6.45;;;5.30;96.10;;;;;;4995750;28;20026;-46
2023/03/17 01:27:03;;;;;;;8.70;6.60;;;5.30;96.10;;;;;;4998510;28;20530;-46
2023/03/17 01:29:54;;;;;;;9.02;6.53;;;5.30;96.10;;;;;;5013132;28;20510;-49
2023/03/17 01:32:40;;;;;;;8.50;6.07;;;5.30;96.00;;;;;;5014285;28;20061;-47
2023/03/17 01:35:28;;;;;;;8.52;5.88;;;5.30;95.90;;;;;;5014401;28;20457;-50
2023/03/17 01:38:14;;;;;;;10.43;6.28;;;5.30;96.00;;;;;;5012970;28;20030;-52
2023/03/17 01:41:00;;;;;;;10.20;6.30;;;5.30;96.10;;;;;;5022064;28;20038;-50
2023/03/17 01:43:46;;;;;;;7.68;6.13;;;5.20;96.20;;;;;;5012183;28;20038;-48
2023/03/17 01:46:34;;;;;;;9.23;6.93;;;5.20;96.40;;;;;;5013775;28;20057;-47
2023/03/17 01:49:23;;;;;;;10.50;6.20;;;5.20;96.30;;;;;;5012870;28;20037;-48
2023/03/17 01:52:16;;;;;;;8.68;6.45;;;5.20;96.40;;;;;;5004544;28;20088;-50
2023/03/17 01:55:05;;;;;;;11.00;6.63;;;5.20;96.40;;;;;;5009569;28;20026;-49
2023/03/17 01:57:53;;;;;;;10.60;6.75;;;5.20;96.20;;;;;;5014659;28;20018;-45
2023/03/17 02:00:39;;;;;;;9.95;6.22;;;5.20;96.20;;;;;;5000721;28;20064;-45
2023/03/17 02:03:26;;;;;;;10.65;5.95;;;5.20;96.20;;;;;;5015017;28;20049;-47
2023/03/17 02:06:12;;;;;;;9.43;5.78;;;5.30;96.20;;;;;;5013766;28;20510;-48
2023/03/17 02:08:59;;;;;;;12.27;6.47;;;5.30;96.10;;;;;;4999579;28;20026;-52
2023/03/17 02:11:45;;;;;;;9.30;6.15;;;5.30;96.00;;;;;;4995376;28;20042;-47
2023/03/17 02:14:32;;;;;;;10.07;6.00;;;5.30;95.90;;;;;;4996359;28;20029;-47
2023/03/17 02:17:20;;;;;;;9.00;5.72;;;5.30;95.90;;;;;;5013421;28;20018;-46
2023/03/17 02:20:14;;;;;;;8.38;5.45;;;5.20;95.90;;;;;;5013071;28;20084;-47
2023/03/17 02:23:02;;;;;;;7.18;5.60;;;5.10;96.00;;;;;;5013874;28;20026;-46
2023/03/17 02:25:50;;;;;;;8.15;6.13;;;5.20;96.00;;;;;;5013549;28;20034;-50
2023/03/17 02:28:37;;;;;;;9.85;5.70;;;5.30;95.80;;;;;;5012022;28;20383;-47
2023/03/17 02:31:25;;;;;;;7.63;5.57;;;5.30;95.80;;;;;;4993708;28;20647;-48
2023/03/17 02:34:11;;;;;;;8.77;5.88;;;5.20;96.00;;;;;;5011587;28;20038;-49
2023/03/17 02:36:58;;;;;;;8.15;5.47;;;5.30;96.00;;;;;;5013163;28;20085;-49
2023/03/17 02:39:44;;;;;;;7.15;5.38;;;5.20;96.00;;;;;;5012128;28;20108;-50
2023/03/17 02:42:31;;;;;;;8.20;5.57;;;5.30;96.00;;;;;;5011834;28;20450;-47
2023/03/17 02:45:17;;;;;;;6.88;5.80;;;5.30;95.90;;;;;;5013751;28;20402;-49
2023/03/17 02:48:04;;;;;;;9.52;6.25;;;5.40;95.60;;;;;;5012442;28;20042;-47
2023/03/17 02:50:50;;;;;;;9.55;6.65;;;5.30;95.70;;;;;;5012037;28;20030;-51
2023/03/17 02:53:36;;;;;;;9.32;6.10;;;5.30;95.70;;;;;;5011753;28;20500;-48
2023/03/17 02:56:22;;;;;;;10.18;5.80;;;5.30;95.70;;;;;;5013169;28;20034;-48
2023/03/17 02:59:08;;;;;;;8.57;5.85;;;5.30;95.70;;;;;;4994999;28;20035;-47
2023/03/17 03:01:55;;;;;;;9.50;6.20;;;5.20;95.70;;;;;;5000982;28;20030;-48
2023/03/17 03:04:41;;;;;;;7.88;5.70;;;5.20;95.80;;;;;;4997817;28;20060;-52
2023/03/17 03:07:28;;;;;;;8.65;5.45;;;5.20;95.60;;;;;;5010967;28;20037;-54
2023/03/17 03:10:14;;;;;;;6.80;5.20;;;5.30;95.60;;;;;;5011560;28;20037;-51
2023/03/17 03:13:00;;;;;;;6.55;4.85;;;5.30;95.60;;;;;;4996924;28;20038;-53
2023/03/17 03:15:46;;;;;;;8.07;5.95;;;5.30;95.30;;;;;;5012371;28;20072;-49
2023/03/17 03:18:32;;;;;;;8.13;5.22;;;5.40;95.40;;;;;;5011196;28;20905;-53
2023/03/17 03:21:18;;;;;;;8.20;5.22;;;5.40;95.50;;;;;;4978755;28;20034;-51
2023/03/17 03:24:05;;;;;;;8.05;5.18;;;5.40;95.20;;;;;;4994531;28;20031;-49
2023/03/17 03:26:51;;;;;;;8.52;5.32;;;5.40;95.30;;;;;;5002441;28;20035;-52
2023/03/17 03:29:37;;;;;;;7.20;5.40;;;5.30;95.30;;;;;;4998987;28;20560;-48
2023/03/17 03:32:23;;;;;;;9.65;5.15;;;5.40;95.30;;;;;;5013424;28;20030;-51
2023/03/17 03:35:09;;;;;;;9.63;5.32;;;5.40;95.00;;;;;;5012143;28;20068;-52
2023/03/17 03:37:56;;;;;;;7.65;5.00;;;5.40;94.80;;;;;;5011042;28;20084;-53
2023/03/17 03:40:42;;;;;;;7.22;4.93;;;5.50;94.70;;;;;;5012150;28;20038;-53
2023/03/17 03:43:28;;;;;;;10.13;5.10;;;5.50;94.80;;;;;;5012262;28;20026;-52
2023/03/17 03:46:14;;;;;;;7.07;4.63;;;5.40;94.80;;;;;;4992691;28;20034;-47
2023/03/17 03:49:00;;;;;;;6.78;5.03;;;5.40;94.80;;;;;;4993471;28;20399;-47
2023/03/17 03:51:46;;;;;;;10.45;5.57;;;5.40;94.80;;;;;;5011844;28;20038;-48
2023/03/17 03:54:32;;;;;;;7.50;5.20;;;5.50;94.80;;;;;;4997692;28;20052;-48
2023/03/17 03:57:18;;;;;;;8.57;5.20;;;5.50;94.80;;;;;;5011827;28;20068;-50
2023/03/17 04:00:06;;;;;;;6.10;4.75;;;5.40;94.80;;;;;;4997850;28;20194;-53
2023/03/17 04:02:52;;;;;;;7.18;5.10;;;5.40;94.70;;;;;;5010730;28;20065;-54
2023/03/17 04:05:38;;;;;;;10.35;6.05;;;5.40;95.00;;;;;;4997287;28;20399;-53
2023/03/17 04:08:24;;;;;;;6.20;4.90;;;5.40;94.70;;;;;;5011337;28;20518;-51
2023/03/17 04:11:10;;;;;;;6.78;4.70;;;5.50;94.50;;;;;;4979107;28;20038;-50
2023/03/17 04:13:56;;;;;;;7.50;4.82;;;5.50;94.40;;;;;;5000758;28;20414;-50
2023/03/17 04:16:42;;;;;;;9.70;5.50;;;5.50;94.40;;;;;;5010976;28;20033;-51
2023/03/17 04:19:28;;;;;;;9.43;5.10;;;5.50;94.40;;;;;;5011071;28;20496;-48
2023/03/17 04:22:15;;;;;;;7.95;4.50;;;5.50;94.30;;;;;;5012682;28;20034;-49
2023/03/17 04:25:01;;;;;;;7.47;4.53;;;5.50;94.20;;;;;;5010927;28;20061;-52
2023/03/17 04:27:47;;;;;;;8.85;4.85;;;5.50;94.30;;;;;;5005674;28;20030;-51
2023/03/17 04:30:33;;;;;;;7.65;4.68;;;5.50;94.60;;;;;;4997516;28;20026;-50
2023/03/17 04:33:19;;;;;;;7.15;4.78;;;5.40;94.40;;;;;;5011298;28;20184;-51
2023/03/17 04:36:06;;;;;;;8.32;4.68;;;5.40;94.40;;;;;;5010963;28;20030;-49
2023/03/17 04:38:52;;;;;;;7.22;4.88;;;5.40;94.40;;;;;;5011136;28;20089;-49
2023/03/17 04:41:38;;;;;;;9.55;5.10;;;5.40;94.40;;;;;;5011302;28;20451;-47
2023/03/17 04:44:25;;;;;;;8.48;5.00;;;5.50;94.30;;;;;;5011994;28;20490;-48
2023/03/17 04:47:11;;;;;;;10.45;4.90;;;5.50;94.20;;;;;;5010711;28;20026;-48
2023/03/17 04:49:57;;;;;;;7.47;5.38;;;5.50;94.20;;;;;;5011188;28;20141;-51
2023/03/17 04:52:43;;;;;;;8.77;4.72;;;5.50;94.10;;;;;;5010711;28;20136;-49
2023/03/17 04:55:29;;;;;;;9.02;4.95;;;5.50;93.90;;;;;;5010421;28;20394;-51
2023/03/17 04:58:15;;;;;;;12.07;5.80;;;5.50;94.00;;;;;;5010611;28;20454;-50
2023/03/17 05:01:02;;;;;;;12.32;5.70;;;5.50;94.00;;;;;;5011738;28;20026;-52
2023/03/17 05:03:48;;;;;;;8.05;4.90;;;5.60;94.00;;;;;;5011763;28;20073;-54
2023/03/17 05:06:36;;;;;;;24.77;13.27;;;5.60;94.00;;;;;;5010284;28;20038;-50
2023/03/17 05:09:22;;;;;;;9.13;5.35;;;5.60;93.90;;;;;;5010994;28;20030;-51
2023/03/17 05:12:08;;;;;;;11.55;5.20;;;5.50;93.90;;;;;;5011808;28;20129;-48
2023/03/17 05:14:54;;;;;;;8.50;5.18;;;5.50;94.00;;;;;;5011365;28;20406;-50
2023/03/17 05:17:41;;;;;;;8.75;5.22;;;5.40;93.90;;;;;;4993470;28;20029;-55
2023/03/17 05:20:27;;;;;;;8.27;4.90;;;5.50;93.90;;;;;;4995237;28;20101;-50
2023/03/17 05:23:13;;;;;;;8.57;4.85;;;5.40;94.00;;;;;;5011178;28;20030;-54
2023/03/17 05:25:59;;;;;;;5.65;4.30;;;5.40;93.80;;;;;;5011653;28;20034;-54
2023/03/17 05:28:45;;;;;;;6.75;4.38;;;5.40;93.70;;;;;;5014454;28;20077;-50
2023/03/17 05:31:31;;;;;;;11.60;6.40;;;5.40;93.90;;;;;;5014154;28;20088;-48
2023/03/17 05:34:17;;;;;;;6.75;5.00;;;5.40;93.70;;;;;;4999607;28;20026;-50
2023/03/17 05:37:03;;;;;;;6.53;4.55;;;5.40;93.60;;;;;;5013712;28;20034;-51
2023/03/17 05:39:49;;;;;;;6.82;4.63;;;5.40;93.70;;;;;;5013647;28;20505;-48
2023/03/17 05:42:35;;;;;;;7.13;4.95;;;5.40;93.60;;;;;;5014264;28;20034;-49
2023/03/17 05:45:21;;;;;;;9.90;5.30;;;5.40;93.60;;;;;;5011462;28;20034;-53
2023/03/17 05:48:07;;;;;;;7.22;4.70;;;5.40;93.60;;;;;;5003140;28;20026;-48
2023/03/17 05:50:53;;;;;;;7.88;5.20;;;5.30;93.70;;;;;;5003417;28;20440;-49
2023/03/17 05:53:39;;;;;;;6.97;4.55;;;5.40;93.80;;;;;;4994526;28;20030;-50
2023/03/17 05:56:32;;;;;;;7.00;4.70;;;5.40;93.80;;;;;;5010722;28;20088;-52
2023/03/17 05:59:18;;;;;;;10.57;5.25;;;5.30;93.80;;;;;;5014581;28;20029;-53
2023/03/17 06:02:03;;;;;;;8.40;4.65;;;5.30;93.80;;;;;;5011658;28;20041;-51
2023/03/17 06:04:50;;;;;;;7.45;5.20;;;5.40;93.80;;;;;;5013608;28;20112;-50
2023/03/17 06:07:36;;;;;;;6.35;4.70;;;5.30;93.70;;;;;;5013760;28;20084;-48
2023/03/17 06:10:23;;;;;;;7.20;4.75;;;5.40;93.70;;;;;;5013682;28;20026;-47
2023/03/17 06:13:10;;;;;;;7.55;5.53;;;5.40;93.70;;;;;;5013234;28;20038;-47
2023/03/17 06:15:56;;;;;;;8.68;5.60;;;5.40;93.60;;;;;;5014496;28;20018;-50
2023/03/17 06:18:42;;;;;;;7.82;4.90;;;5.50;93.70;;;;;;5013414;28;20041;-49
2023/03/17 06:21:28;;;;;;;7.03;4.97;;;5.50;93.30;;;;;;5013313;28;20038;-51
2023/03/17 06:24:15;;;;;;;9.02;5.15;;;5.60;93.30;;;;;;5013331;28;20040;-51
2023/03/17 06:27:01;;;;;;;8.93;5.13;;;5.60;93.20;;;;;;5012648;28;20494;-51
2023/03/17 06:29:47;;;;;;;8.68;4.75;;;5.60;93.30;;;;;;5013510;28;20034;-50
2023/03/17 06:32:34;;;;;;;8.10;5.20;;;5.60;93.10;;;;;;5012940;28;20029;-49
2023/03/17 06:35:21;;;;;;;10.27;4.53;;;5.60;93.10;;;;;;5013388;28;20033;-53
2023/03/17 06:38:07;;;;;;;6.50;4.50;;;5.70;93.00;;;;;;5011124;28;20033;-49
2023/03/17 06:40:53;;;;;;;10.90;5.65;;;5.70;92.80;;;;;;5013537;28;20029;-53
2023/03/17 06:43:40;;;;;;;7.07;4.22;;;5.80;92.70;;;;;;5013747;28;20375;-55
2023/03/17 06:46:26;;;;;;;8.18;4.68;;;5.80;92.60;;;;;;5013569;28;20022;-55
2023/03/17 06:49:12;;;;;;;10.68;4.78;;;5.90;92.60;;;;;;4994710;28;20027;-48
2023/03/17 06:51:58;;;;;;;10.73;4.90;;;6.00;92.60;;;;;;4996344;28;20026;-50
2023/03/17 06:54:44;;;;;;;7.65;4.75;;;6.00;92.40;;;;;;5013539;28;20030;-52
2023/03/17 06:57:30;;;;;;;7.70;5.68;;;6.10;92.30;;;;;;5011612;28;20021;-47
2023/03/17 07:00:17;;;;;;;9.70;5.82;;;6.20;92.30;;;;;;5011222;28;20022;-49
2023/03/17 07:03:04;;;;;;;13.60;4.68;;;6.30;92.20;;;;;;5006048;28;20042;-51
2023/03/17 07:05:51;;;;;;;7.43;4.47;;;6.30;92.10;;;;;;5007019;28;20034;-49
2023/03/17 07:08:37;;;;;;;10.10;5.35;;;6.40;91.80;;;;;;4990993;28;20041;-49
2023/03/17 07:11:25;;;;;;;8.90;5.05;;;6.50;91.70;;;;;;5009973;28;20129;-52
2023/03/17 07:14:11;;;;;;;7.50;4.75;;;6.60;91.70;;;;;;4995967;28;20026;-49
2023/03/17 07:16:57;;;;;;;9.30;4.75;;;6.60;91.40;;;;;;5012018;28;20026;-49
2023/03/17 07:19:43;;;;;;;9.55;5.03;;;6.70;91.30;;;;;;5001899;28;20400;-51
2023/03/17 07:22:29;;;;;;;10.90;6.35;;;6.80;91.20;;;;;;5008444;28;20034;-48
2023/03/17 07:25:15;;;;;;;9.30;4.82;;;6.80;91.00;;;;;;5011405;28;20486;-50
2023/03/17 07:28:01;;;;;;;6.75;4.65;;;6.90;91.00;;;;;;4998358;28;20498;-52
2023/03/17 07:30:48;;;;;;;7.53;4.22;;;7.00;91.00;;;;;;5013245;28;20651;-47
2023/03/17 07:33:34;;;;;;;8.98;4.40;;;7.10;90.50;;;;;;5012061;28;20030;-50
2023/03/17 07:36:20;;;;;;;8.50;4.68;;;7.10;90.30;;;;;;5002737;28;20099;-51
2023/03/17 07:39:06;;;;;;;12.95;4.88;;;7.10;90.30;;;;;;4996472;28;20058;-52
2023/03/17 07:41:54;;;;;;;6.38;4.47;;;7.20;90.30;;;;;;4999476;28;20502;-51
2023/03/17 07:44:40;;;;;;;13.75;4.97;;;7.20;90.20;;;;;;5007126;28;20038;-48
2023/03/17 07:47:26;;;;;;;9.10;4.10;;;7.40;90.00;;;;;;5010814;28;20251;-47
2023/03/17 07:50:13;;;;;;;7.35;4.60;;;7.40;89.80;;;;;;5004051;28;20033;-51
2023/03/17 07:52:59;;;;;;;9.77;5.05;;;7.50;89.80;;;;;;4993246;28;20034;-49
2023/03/17 07:55:45;;;;;;;8.32;4.15;;;7.60;89.50;;;;;;4993387;28;20097;-50
2023/03/17 07:58:31;;;;;;;7.32;4.25;;;7.60;89.10;;;;;;4999797;28;20109;-50
2023/03/17 08:01:17;;;;;;;13.85;4.78;;;7.60;89.30;;;;;;5008525;28;20060;-53
2023/03/17 08:04:03;;;;;;;10.07;5.35;;;7.70;88.90;;;;;;4986733;28;20462;-49
2023/03/17 08:06:49;;;;;;;8.65;4.30;;;7.90;88.50;;;;;;5011536;28;20030;-47
2023/03/17 08:09:36;;;;;;;10.10;4.70;;;8.00;87.90;;;;;;5012552;28;20419;-52
2023/03/17 08:12:22;;;;;;;6.05;4.70;;;8.00;87.90;;;;;;5007577;28;20030;-48
2023/03/17 08:15:09;;;;;;;6.55;4.40;;;8.20;87.70;;;;;;5008760;28;20494;-53
2023/03/17 08:17:56;;;;;;;9.05;4.57;;;8.30;87.30;;;;;;5011909;28;20025;-49
2023/03/17 08:20:41;;;;;;;9.82;4.40;;;8.40;87.00;;;;;;5011895;28;20100;-48
2023/03/17 08:23:27;;;;;;;7.65;4.95;;;8.50;86.30;;;;;;5012279;28;20029;-50
2023/03/17 08:26:13;;;;;;;5.65;4.10;;;8.40;86.80;;;;;;5002105;28;20034;-52
2023/03/17 08:29:00;;;;;;;8.85;4.30;;;8.50;86.60;;;;;;4997670;28;20403;-53
2023/03/17 08:31:46;;;;;;;8.65;4.40;;;8.50;86.90;;;;;;5008919;28;20407;-49
2023/03/17 08:34:32;;;;;;;7.15;4.18;;;8.60;86.60;;;;;;5004514;28;20054;-53
2023/03/17 08:37:18;;;;;;;8.70;4.78;;;8.70;86.50;;;;;;5009973;28;20073;-48
2023/03/17 08:40:04;;;;;;;7.40;5.45;;;8.90;86.00;;;;;;5008556;28;20064;-53
2023/03/17 08:42:51;;;;;;;4.97;4.13;;;9.00;86.30;;;;;;5007388;28;20774;-52
2023/03/17 08:45:38;;;;;;;7.65;4.43;;;9.10;86.00;;;;;;5003821;28;20041;-48
2023/03/17 08:48:24;;;;;;;7.97;4.20;;;9.30;85.70;;;;;;5010183;28;20037;-50
2023/03/17 08:51:10;;;;;;;10.13;4.13;;;9.40;85.80;;;;;;4991067;28;20030;-51
2023/03/17 08:53:57;;;;;;;8.10;4.70;;;9.50;85.20;;;;;;5007555;28;20442;-51
2023/03/17 08:56:43;;;;;;;7.30;4.60;;;9.50;85.00;;;;;;5004172;28;20022;-50
2023/03/17 08:59:29;;;;;;;7.95;4.10;;;9.50;84.90;;;;;;5000311;28;20514;-50
2023/03/17 09:02:15;;;;;;;7.05;4.43;;;9.50;85.00;;;;;;5007272;28;20030;-53
2023/03/17 09:05:01;;;;;;;6.68;4.22;;;9.60;85.10;;;;;;5011336;28;20065;-53
2023/03/17 09:07:48;;;;;;;9.73;6.47;;;9.80;84.60;;;;;;5012456;28;20025;-53
2023/03/17 09:10:35;;;;;;;8.48;5.15;;;9.80;84.60;;;;;;5011269;28;20112;-53
2023/03/17 09:13:21;;;;;;;7.93;4.60;;;9.90;84.60;;;;;;5011438;28;20084;-50
2023/03/17 09:16:08;;;;;;;8.70;4.63;;;10.10;84.20;;;;;;5009767;28;20478;-58
2023/03/17 09:18:54;;;;;;;9.38;4.55;;;10.20;83.90;;;;;;5014276;28;20041;-52
2023/03/17 09:21:40;;;;;;;6.10;4.90;;;10.40;83.60;;;;;;5013092;28;20503;-51
2023/03/17 09:24:26;;;;;;;6.25;4.70;;;10.50;83.40;;;;;;5015230;28;20038;-48
2023/03/17 09:27:12;;;;;;;6.72;4.18;;;10.70;83.10;;;;;;5014705;28;20030;-52
2023/03/17 09:29:58;;;;;;;8.00;4.60;;;10.70;81.60;;;;;;5014088;28;20463;-47
2023/03/17 09:32:44;;;;;;;8.23;4.85;;;10.80;81.70;;;;;;5023574;28;20026;-50
2023/03/17 09:35:31;;;;;;;7.40;3.78;;;10.80;81.70;;;;;;5015636;28;20026;-50
2023/03/17 09:38:17;;;;;;;7.18;3.70;;;10.90;80.00;;;;;;5014181;28;20038;-54
2023/03/17 09:41:27;;;;;;;7.47;4.65;;;11.00;79.80;;;;;;4993302;28;20086;-47
2023/03/17 09:44:32;;;;;;;7.80;4.50;;;11.20;79.70;;;;;;4998776;28;20014;-50
2023/03/17 09:47:50;;;;;;;9.10;4.90;;;11.20;79.20;;;;;;4994392;28;20026;-52
2023/03/17 09:51:01;;;;;;;5.10;4.15;;;11.20;79.10;;;;;;5012183;28;20034;-50
2023/03/17 09:54:00;;;;;;;5.72;4.43;;;11.10;77.90;;;;;;5014014;28;20068;-53
2023/03/17 09:56:53;;;;;;;11.35;4.40;;;11.20;78.40;;;;;;5014126;28;20047;-52
2023/03/17 09:59:49;;;;;;;5.47;4.40;;;11.30;78.80;;;;;;5009737;28;20108;-50
2023/03/17 10:02:36;;;;;;;9.07;4.45;;;11.40;78.30;;;;;;5020758;28;20083;-48
2023/03/17 10:05:25;;;;;;;12.02;5.03;;;11.50;78.30;;;;;;5014541;28;20071;-51
2023/03/17 10:08:32;;;;;;;6.93;5.07;;;11.60;77.90;;;;;;5012631;28;20024;-49
2023/03/17 10:11:41;;;;;;;7.03;4.90;;;11.70;77.90;;;;;;5014340;28;20025;-49
2023/03/17 10:14:37;;;;;;;7.85;4.38;;;11.80;77.50;;;;;;5013777;28;20026;-53
2023/03/17 10:17:36;;;;;;;13.10;5.03;;;11.80;77.30;;;;;;4994471;28;20030;-52
2023/03/17 10:20:35;;;;;;;8.93;4.90;;;11.90;77.80;;;;;;5011491;28;20030;-52
2023/03/17 10:23:26;;;;;;;8.00;4.15;;;12.20;77.30;;;;;;4998865;28;20026;-54
2023/03/17 10:26:38;;;;;;;11.13;3.80;;;12.40;76.20;;;;;;5013734;28;20026;-49
2023/03/17 10:29:24;;;;;;;9.02;4.45;;;12.60;75.70;;;;;;5014201;28;20030;-52
2023/03/17 10:32:12;;;;;;;6.97;4.20;;;12.50;75.20;;;;;;5012296;28;20514;-53
2023/03/17 10:34:58;;;;;;;14.82;4.70;;;12.70;75.20;;;;;;5012954;28;20030;-47
2023/03/17 10:37:46;;;;;;;12.65;4.75;;;12.90;75.30;;;;;;5013501;28;20029;-51
2023/03/17 10:40:35;;;;;;;9.18;3.50;;;13.30;74.70;;;;;;4998834;28;20398;-53
2023/03/17 10:43:21;;;;;;;11.15;4.25;;;13.30;73.80;;;;;;5013222;28;20034;-49
2023/03/17 10:46:21;;;;;;;8.52;5.47;;;13.30;74.00;;;;;;5012047;28;20037;-47
2023/03/17 10:49:16;;;;;;;10.13;4.43;;;13.10;74.00;;;;;;5012802;28;20044;-52
2023/03/17 10:52:06;;;;;;;14.60;4.35;;;13.20;74.40;;;;;;5012700;28;20030;-54
2023/03/17 10:54:53;;;;;;;9.23;4.18;;;13.20;74.10;;;;;;5013453;28;20037;-47
2023/03/17 10:57:48;;;;;;;7.32;3.80;;;13.10;74.40;;;;;;5012948;28;20495;-53
2023/03/17 11:00:37;;;;;;;7.75;5.30;;;13.00;74.60;;;;;;5012312;28;20041;-51
2023/03/17 11:03:36;;;;;;;10.18;4.50;;;13.00;74.50;;;;;;5013075;28;20061;-50
2023/03/17 11:06:38;;;;;;;11.48;5.22;;;13.10;74.40;;;;;;5012127;28;20030;-51
2023/03/17 11:09:26;;;;;;;6.60;4.28;;;13.20;74.90;;;;;;4997987;28;20038;-51
2023/03/17 11:12:25;;;;;;;5.72;3.70;;;13.30;74.40;;;;;;4992907;28;20029;-52
2023/03/17 11:15:16;;;;;;;8.13;4.25;;;13.30;74.40;;;;;;4996372;28;20384;-51
2023/03/17 11:18:33;;;;;;;7.57;4.28;;;13.40;73.90;;;;;;5009482;28;20101;-56
2023/03/17 11:21:28;;;;;;;5.18;3.55;;;13.40;74.50;;;;;;5004848;28;20030;-50
2023/03/17 11:24:29;;;;;;;7.80;3.63;;;13.50;81.10;;;;;;4994649;28;20029;-49
2023/03/17 11:27:23;;;;;;;9.63;4.10;;;13.70;80.60;;;;;;5009933;28;20026;-53
2023/03/17 11:30:29;;;;;;;8.30;4.57;;;13.90;77.60;;;;;;5009452;28;20032;-54
2023/03/17 11:33:33;;;;;;;10.05;4.10;;;14.00;75.80;;;;;;5002713;28;20570;-51
2023/03/17 11:37:01;;;;;;;11.40;4.93;;;14.20;76.40;;;;;;5003600;28;20076;-54
2023/03/17 11:40:00;;;;;;;6.20;4.00;;;14.40;74.50;;;;;;4998500;28;20022;-62
2023/03/17 11:43:19;;;;;;;10.57;4.90;;;14.60;74.70;;;;;;5002804;28;20037;-52
2023/03/17 11:46:09;;;;;;;9.48;4.93;;;14.80;72.70;;;;;;5000553;28;20030;-53
2023/03/17 11:49:23;;;;;;;9.32;4.50;;;14.90;72.00;;;;;;5005490;28;20046;-52
2023/03/17 11:52:47;;;;;;;8.93;4.53;;;14.90;73.10;;;;;;5003930;28;20058;-54
2023/03/17 11:55:57;;;;;;;8.95;3.90;;;15.00;73.30;;;;;;4960764;28;20478;-56
2023/03/17 11:58:48;;;;;;;5.40;3.67;;;15.20;70.10;;;;;;4996929;28;20487;-52
2023/03/17 12:01:54;;;;;;;9.45;4.20;;;15.00;70.20;;;;;;5006617;28;20494;-51
2023/03/17 12:04:52;;;;;;;6.53;3.65;;;14.90;70.40;;;;;;4984628;28;20060;-52
2023/03/17 12:07:57;;;;;;;5.90;3.63;;;15.00;70.40;;;;;;5010056;28;20054;-50
2023/03/17 12:10:46;;;;;;;6.05;3.72;;;15.00;69.90;;;;;;5010637;28;20109;-51
2023/03/17 12:13:38;;;;;;;10.55;4.20;;;15.10;69.40;;;;;;5007733;28;20461;-51
2023/03/17 12:16:46;;;;;;;5.15;3.50;;;15.10;69.20;;;;;;5003075;28;20069;-53
2023/03/17 12:20:07;;;;;;;6.63;3.67;;;15.10;69.60;;;;;;4996918;28;20030;-53
2023/03/17 12:23:28;;;;;;;9.60;3.92;;;15.20;69.90;;;;;;5000732;28;20030;-53
2023/03/17 12:26:31;;;;;;;14.60;4.47;;;15.20;71.10;;;;;;4994649;28;20658;-63
2023/03/17 12:29:25;;;;;;;8.57;3.70;;;15.10;72.00;;;;;;5006172;28;20034;-56
2023/03/17 12:32:25;;;;;;;8.00;3.85;;;15.20;72.50;;;;;;5002919;28;20050;-53
2023/03/17 12:35:20;;;;;;;10.13;4.35;;;15.30;72.50;;;;;;4987092;28;20043;-52
2023/03/17 12:38:22;;;;;;;6.60;4.45;;;15.40;72.20;;;;;;4995673;28;20018;-57
2023/03/17 12:41:26;;;;;;;7.53;4.55;;;15.40;71.60;;;;;;5000481;28;20457;-54
2023/03/17 12:44:19;;;;;;;5.97;4.07;;;15.40;71.40;;;;;;4994704;28;20014;-56
2023/03/17 12:47:38;;;;;;;5.55;3.45;;;15.40;71.60;;;;;;5005604;28;20021;-56
2023/03/17 12:50:27;;;;;;;12.85;3.80;;;15.40;71.50;;;;;;5000356;28;20393;-56
2023/03/17 12:53:33;;;;;;;8.27;3.70;;;15.30;70.90;;;;;;5006634;28;20509;-57
2023/03/17 12:56:33;;;;;;;7.15;3.70;;;15.20;71.40;;;;;;5016424;28;20030;-57
2023/03/17 12:59:23;;;;;;;8.90;4.72;;;15.20;71.80;;;;;;5007770;28;20026;-53
2023/03/17 13:02:34;;;;;;;7.40;3.80;;;15.20;72.20;;;;;;5010086;28;20650;-56
2023/03/17 13:05:31;;;;;;;9.90;4.60;;;15.30;72.30;;;;;;5009580;28;20022;-57
2023/03/17 13:08:30;;;;;;;9.60;4.57;;;15.30;72.10;;;;;;5012279;28;20089;-55
2023/03/17 13:11:27;;;;;;;7.53;3.95;;;15.30;72.50;;;;;;5007960;28;20030;-55
2023/03/17 13:14:32;;;;;;;10.07;3.92;;;15.20;72.60;;;;;;5006067;28;20022;-54
2023/03/17 13:17:29;;;;;;;15.35;6.65;;;15.10;72.90;;;;;;4996101;28;20038;-58
2023/03/17 13:20:18;;;;;;;6.80;4.63;;;15.10;73.00;;;;;;5006453;28;20033;-54
2023/03/17 13:23:12;;;;;;;7.10;3.83;;;15.10;72.90;;;;;;5006295;28;20022;-53
2023/03/17 13:25:59;;;;;;;6.53;4.13;;;15.20;72.60;;;;;;5006855;28;20526;-54
2023/03/17 13:28:48;;;;;;;6.70;3.70;;;15.10;71.70;;;;;;5003558;28;20109;-57
2023/03/17 13:31:36;;;;;;;6.00;3.78;;;15.20;71.90;;;;;;4999222;28;20109;-54
2023/03/17 13:34:22;;;;;;;8.15;4.05;;;15.20;71.30;;;;;;5005410;28;20569;-55
2023/03/17 13:37:29;;;;;;;6.22;4.18;;;15.10;71.40;;;;;;5012307;28;20062;-58
2023/03/17 13:40:38;;;;;;;6.10;3.58;;;15.10;71.30;;;;;;5008861;28;20018;-57
2023/03/17 13:43:42;;;;;;;6.13;4.22;;;15.10;71.70;;;;;;5009463;28;20044;-52
2023/03/17 13:46:38;;;;;;;6.72;3.95;;;15.10;71.80;;;;;;5002954;28;20033;-51
2023/03/17 13:49:30;;;;;;;7.90;4.15;;;15.20;72.10;;;;;;5006051;28;20495;-55
2023/03/17 13:52:31;;;;;;;8.05;3.95;;;15.20;71.10;;;;;;4985252;28;20530;-57
2023/03/17 13:55:17;;;;;;;8.93;4.10;;;15.20;71.00;;;;;;5001334;28;20034;-54
2023/03/17 13:58:08;;;;;;;8.93;4.03;;;15.30;72.40;;;;;;5008659;28;20022;-49
2023/03/17 14:01:02;;;;;;;6.95;3.42;;;15.40;75.10;;;;;;5005794;28;20153;-53
2023/03/17 14:03:50;;;;;;;7.53;3.90;;;15.70;72.60;;;;;;5002658;28;20132;-55
2023/03/17 14:06:37;;;;;;;5.57;3.45;;;15.70;72.30;;;;;;5001341;28;20495;-55
2023/03/17 14:09:30;;;;;;;9.43;4.50;;;15.70;71.60;;;;;;4996477;28;20033;-53
2023/03/17 14:12:34;;;;;;;7.22;3.70;;;15.70;69.60;;;;;;5002876;28;20076;-51
2023/03/17 14:15:33;;;;;;;4.32;3.47;;;15.50;69.90;;;;;;5009231;28;20018;-55
2023/03/17 14:18:29;;;;;;;4.18;3.50;;;15.40;70.50;;;;;;5000138;28;20045;-51
2023/03/17 14:21:33;;;;;;;7.35;3.70;;;15.50;70.90;;;;;;5006473;28;20026;-53
2023/03/17 14:24:24;;;;;;;6.22;3.50;;;15.40;70.00;;;;;;5002590;28;20030;-52
2023/03/17 14:27:13;;;;;;;12.18;3.55;;;15.40;70.70;;;;;;5007696;28;20022;-53
2023/03/17 14:30:16;;;;;;;6.68;3.40;;;15.50;70.40;;;;;;4996183;28;20026;-55
2023/03/17 14:33:06;;;;;;;11.60;3.85;;;15.60;69.80;;;;;;5005641;28;20509;-57
2023/03/17 14:35:56;;;;;;;12.13;4.57;;;15.60;69.80;;;;;;5007621;28;20724;-51
2023/03/17 14:38:50;;;;;;;7.68;3.53;;;15.70;69.90;;;;;;5006083;28;20197;-52
2023/03/17 14:41:36;;;;;;;6.60;3.50;;;15.90;69.50;;;;;;5003041;28;20042;-54
2023/03/17 14:44:22;;;;;;;6.43;3.17;;;16.00;69.80;;;;;;5004694;28;20513;-52
2023/03/17 14:47:27;;;;;;;12.48;3.88;;;16.10;69.20;;;;;;5001648;28;20521;-55
2023/03/17 14:50:27;;;;;;;6.15;3.45;;;16.20;69.50;;;;;;5005668;28;20054;-54